createdAt,value
2017-12-27T00:02:21.668Z,4.27
2017-12-27T00:04:54.898Z,4.28
2017-12-27T00:07:28.509Z,4.29
2017-12-27T00:10:02.719Z,4.33
2017-12-27T00:15:36.812Z,4.26
2017-12-27T00:21:10.263Z,4.29
2017-12-27T00:23:43.776Z,4.29
2017-12-27T00:26:16.913Z,4.32
2017-12-27T00:28:50.370Z,4.32
2017-12-27T00:31:17.932Z,4.29
2017-12-27T00:33:45.523Z,4.31
2017-12-27T00:36:13.131Z,4.33
2017-12-27T00:38:40.739Z,4.38
2017-12-27T00:41:08.693Z,4.31
2017-12-27T00:43:36.554Z,4.21
2017-12-27T00:46:04.122Z,4.18
2017-12-27T00:48:31.781Z,4.17
2017-12-27T00:50:59.350Z,4.23
2017-12-27T00:53:26.972Z,4.20
2017-12-27T00:55:54.543Z,4.25
2017-12-27T00:58:22.103Z,4.20
2017-12-27T01:00:49.727Z,4.27
2017-12-27T01:03:17.291Z,4.28
2017-12-27T01:05:44.921Z,4.22
2017-12-27T01:08:12.510Z,4.25
2017-12-27T01:10:40.445Z,4.29
2017-12-27T01:13:08.070Z,4.33
2017-12-27T01:15:35.628Z,4.32
2017-12-27T01:18:03.239Z,4.38
2017-12-27T01:20:30.821Z,4.37
2017-12-27T01:22:58.411Z,4.40
2017-12-27T01:25:26.023Z,4.37
2017-12-27T01:27:53.617Z,4.28
2017-12-27T01:30:21.254Z,4.21
2017-12-27T01:32:48.815Z,4.15
2017-12-27T01:35:16.399Z,4.12
2017-12-27T01:37:44.320Z,4.19
2017-12-27T01:40:11.908Z,4.17
2017-12-27T01:42:39.518Z,4.19
2017-12-27T01:45:07.095Z,4.16
2017-12-27T01:47:34.975Z,4.20
2017-12-27T01:50:02.587Z,4.21
2017-12-27T01:52:30.148Z,4.22
2017-12-27T01:54:57.772Z,4.26
2017-12-27T01:57:25.367Z,4.27
2017-12-27T01:59:52.944Z,4.31
2017-12-27T02:02:20.849Z,4.28
2017-12-27T02:04:48.419Z,4.19
2017-12-27T02:07:16.049Z,4.11
2017-12-27T02:09:43.622Z,4.11
2017-12-27T02:12:11.238Z,4.12
2017-12-27T02:14:38.844Z,4.11
2017-12-27T02:17:06.416Z,4.08
2017-12-27T02:19:34.037Z,4.00
2017-12-27T02:22:01.645Z,3.96
2017-12-27T02:24:29.271Z,3.96
2017-12-27T02:26:56.911Z,3.95
2017-12-27T02:29:24.488Z,3.86
2017-12-27T02:31:55.341Z,3.88
2017-12-27T02:34:22.928Z,3.89
2017-12-27T02:36:50.508Z,3.90
2017-12-27T02:39:26.551Z,3.96
2017-12-27T02:41:54.127Z,3.93
2017-12-27T02:44:21.734Z,3.89
2017-12-27T02:46:49.300Z,3.90
2017-12-27T02:49:17.156Z,3.92
2017-12-27T02:51:44.764Z,3.89
2017-12-27T02:54:12.340Z,3.84
2017-12-27T02:56:39.932Z,3.78
2017-12-27T02:59:07.853Z,3.79
2017-12-27T03:01:35.523Z,3.74
2017-12-27T03:04:03.393Z,3.78
2017-12-27T03:06:30.992Z,3.77
2017-12-27T03:08:58.580Z,3.78
2017-12-27T03:11:26.476Z,3.73
2017-12-27T03:13:54.448Z,3.71
2017-12-27T03:16:22.021Z,3.77
2017-12-27T03:18:49.608Z,3.77
2017-12-27T03:21:17.214Z,3.79
2017-12-27T03:23:44.792Z,3.75
2017-12-27T03:26:12.398Z,3.70
2017-12-27T03:28:39.958Z,3.74
2017-12-27T03:31:07.784Z,3.74
2017-12-27T03:33:35.383Z,3.76
2017-12-27T03:36:02.943Z,3.78
2017-12-27T03:38:30.548Z,3.69
2017-12-27T03:40:58.110Z,3.69
2017-12-27T03:43:25.689Z,3.64
2017-12-27T03:45:53.301Z,3.67
2017-12-27T03:48:20.876Z,3.60
2017-12-27T03:50:48.499Z,3.57
2017-12-27T03:53:16.072Z,3.56
2017-12-27T03:55:43.639Z,3.55
2017-12-27T03:58:11.248Z,3.53
2017-12-27T04:00:38.830Z,3.61
2017-12-27T04:03:06.896Z,3.57
2017-12-27T04:05:34.477Z,3.58
2017-12-27T04:08:02.042Z,3.61
2017-12-27T04:10:29.639Z,3.58
2017-12-27T04:12:57.206Z,3.58
2017-12-27T04:15:24.845Z,3.64
2017-12-27T04:17:52.423Z,3.61
2017-12-27T04:20:20.026Z,3.60
2017-12-27T04:22:47.684Z,3.53
2017-12-27T04:25:15.255Z,3.51
2017-12-27T04:27:43.113Z,3.50
2017-12-27T04:30:10.711Z,3.49
2017-12-27T04:32:38.305Z,3.53
2017-12-27T04:35:05.967Z,3.60
2017-12-27T04:37:33.570Z,3.58
2017-12-27T04:40:01.528Z,3.61
2017-12-27T04:42:29.135Z,3.60
2017-12-27T04:44:56.957Z,3.54
2017-12-27T04:47:24.575Z,3.52
2017-12-27T04:49:52.496Z,3.54
2017-12-27T04:52:20.106Z,3.45
2017-12-27T04:54:47.678Z,3.45
2017-12-27T04:57:15.253Z,3.47
2017-12-27T04:59:42.860Z,3.50
2017-12-27T05:02:10.431Z,3.45
2017-12-27T05:04:38.044Z,3.42
2017-12-27T05:07:05.945Z,3.39
2017-12-27T05:09:33.522Z,3.37
2017-12-27T05:12:01.114Z,3.46
2017-12-27T05:14:28.683Z,3.44
2017-12-27T05:16:56.301Z,3.49
2017-12-27T05:19:23.871Z,3.39
2017-12-27T05:21:51.467Z,3.40
2017-12-27T05:24:19.074Z,3.37
2017-12-27T05:26:46.643Z,3.33
2017-12-27T05:29:15.216Z,3.35
2017-12-27T05:31:42.784Z,3.35
2017-12-27T05:34:10.347Z,3.27
2017-12-27T05:36:37.943Z,3.27
2017-12-27T05:39:05.518Z,3.29
2017-12-27T05:41:33.131Z,3.18
2017-12-27T05:44:00.708Z,3.22
2017-12-27T05:46:28.291Z,3.16
2017-12-27T05:48:55.892Z,3.06
2017-12-27T05:51:23.460Z,3.04
2017-12-27T05:53:51.071Z,3.00
2017-12-27T05:56:18.647Z,2.97
2017-12-27T05:58:46.222Z,2.93
2017-12-27T06:01:13.828Z,2.90
2017-12-27T06:03:41.401Z,2.94
2017-12-27T06:06:09.008Z,2.91
2017-12-27T06:08:36.571Z,2.84
2017-12-27T06:11:04.138Z,2.82
2017-12-27T06:13:31.740Z,2.91
2017-12-27T06:15:59.319Z,2.82
2017-12-27T06:18:26.968Z,2.83
2017-12-27T06:20:54.580Z,2.89
2017-12-27T06:23:22.160Z,2.92
2017-12-27T06:25:49.767Z,2.92
2017-12-27T06:28:17.341Z,2.83
2017-12-27T06:30:45.249Z,2.91
2017-12-27T06:33:12.849Z,2.90
2017-12-27T06:35:40.482Z,2.83
2017-12-27T06:38:08.092Z,2.91
2017-12-27T06:40:35.680Z,2.87
2017-12-27T06:43:03.272Z,2.90
2017-12-27T06:45:31.221Z,2.87
2017-12-27T06:47:58.842Z,2.84
2017-12-27T06:50:26.751Z,2.86
2017-12-27T06:52:55.317Z,2.92
2017-12-27T06:55:22.897Z,2.90
2017-12-27T06:57:50.511Z,2.87
2017-12-27T07:00:18.115Z,2.88
2017-12-27T07:02:45.992Z,2.89
2017-12-27T07:05:13.583Z,2.89
2017-12-27T07:07:41.563Z,2.85
2017-12-27T07:10:09.188Z,2.77
2017-12-27T07:12:36.791Z,2.89
2017-12-27T07:15:04.356Z,2.88
2017-12-27T07:17:32.275Z,2.81
2017-12-27T07:20:00.145Z,2.89
2017-12-27T07:22:27.761Z,2.93
2017-12-27T07:24:55.344Z,2.90
2017-12-27T07:27:22.947Z,2.92
2017-12-27T07:29:50.807Z,2.90
2017-12-27T07:32:18.388Z,2.90
2017-12-27T07:34:46.031Z,2.92
2017-12-27T07:37:13.610Z,2.94
2017-12-27T07:39:41.188Z,2.87
2017-12-27T07:42:08.788Z,2.93
2017-12-27T07:44:36.394Z,2.89
2017-12-27T07:47:04.053Z,2.90
2017-12-27T07:49:31.624Z,2.89
2017-12-27T07:51:59.455Z,2.87
2017-12-27T07:54:27.080Z,2.96
2017-12-27T07:56:54.755Z,2.96
2017-12-27T07:59:22.667Z,2.96
2017-12-27T08:01:50.636Z,2.96
2017-12-27T08:04:18.232Z,3.03
2017-12-27T08:06:46.164Z,2.99
2017-12-27T08:09:13.792Z,3.06
2017-12-27T08:11:41.403Z,3.05
2017-12-27T08:14:08.984Z,3.09
2017-12-27T08:16:36.589Z,3.20
2017-12-27T08:19:04.213Z,3.22
2017-12-27T08:21:31.827Z,3.27
2017-12-27T08:23:59.468Z,3.26
2017-12-27T08:26:27.363Z,3.32
2017-12-27T08:28:55.225Z,3.30
2017-12-27T08:31:22.842Z,3.33
2017-12-27T08:33:50.642Z,3.33
2017-12-27T08:36:18.279Z,3.34
2017-12-27T08:38:46.614Z,3.40
2017-12-27T08:41:14.210Z,3.45
2017-12-27T08:43:41.815Z,3.53
2017-12-27T08:46:09.403Z,3.60
2017-12-27T08:48:37.030Z,3.56
2017-12-27T08:51:04.915Z,3.66
2017-12-27T08:53:32.561Z,3.71
2017-12-27T08:56:00.181Z,3.74
2017-12-27T08:58:27.801Z,3.74
2017-12-27T09:00:55.439Z,3.79
2017-12-27T09:03:23.328Z,3.84
2017-12-27T09:05:51.195Z,3.82
2017-12-27T09:08:18.863Z,3.86
2017-12-27T09:10:46.461Z,3.83
2017-12-27T09:13:14.095Z,3.87
2017-12-27T09:15:41.684Z,4.00
2017-12-27T09:18:09.278Z,4.04
2017-12-27T09:20:37.184Z,4.11
2017-12-27T09:23:04.761Z,4.20
2017-12-27T09:25:32.716Z,4.17
2017-12-27T09:28:00.572Z,4.07
2017-12-27T09:30:28.240Z,4.10
2017-12-27T09:32:55.854Z,4.11
2017-12-27T09:35:23.460Z,4.09
2017-12-27T09:37:51.081Z,4.17
2017-12-27T09:40:18.990Z,4.14
2017-12-27T09:42:46.584Z,4.18
2017-12-27T09:45:14.523Z,4.22
2017-12-27T09:47:42.488Z,4.36
2017-12-27T09:50:10.459Z,4.48
2017-12-27T09:52:38.049Z,4.51
2017-12-27T09:55:05.626Z,4.63
2017-12-27T09:57:33.223Z,4.69
2017-12-27T10:00:00.809Z,4.81
2017-12-27T10:02:28.455Z,4.92
2017-12-27T10:04:56.444Z,5.04
2017-12-27T10:07:24.022Z,5.01
2017-12-27T10:09:51.671Z,5.15
2017-12-27T10:12:19.274Z,5.13
2017-12-27T10:14:47.193Z,5.02
2017-12-27T10:17:15.068Z,4.94
2017-12-27T10:19:42.934Z,5.05
2017-12-27T10:22:10.605Z,5.24
2017-12-27T10:24:38.183Z,5.25
2017-12-27T10:27:05.809Z,5.29
2017-12-27T10:29:33.407Z,5.26
2017-12-27T10:32:03.504Z,5.29
2017-12-27T10:34:31.189Z,5.25
2017-12-27T10:36:59.885Z,5.33
2017-12-27T10:39:27.616Z,5.35
2017-12-27T10:41:55.262Z,5.28
2017-12-27T10:44:22.863Z,5.15
2017-12-27T10:46:50.480Z,5.13
2017-12-27T10:49:18.062Z,5.17
2017-12-27T10:51:45.747Z,5.10
2017-12-27T10:54:14.285Z,5.15
2017-12-27T10:56:43.570Z,5.21
2017-12-27T10:59:11.195Z,5.22
2017-12-27T11:01:38.772Z,5.24
2017-12-27T11:04:06.392Z,5.25
2017-12-27T11:06:35.316Z,5.27
2017-12-27T11:09:02.927Z,5.28
2017-12-27T11:11:30.557Z,5.27
2017-12-27T11:13:58.150Z,5.27
2017-12-27T11:16:25.771Z,5.28
2017-12-27T11:18:53.356Z,5.37
2017-12-27T11:21:20.951Z,5.35
2017-12-27T11:23:48.566Z,5.46
2017-12-27T11:26:16.407Z,5.54
2017-12-27T11:28:44.033Z,5.53
2017-12-27T11:31:11.916Z,5.58
2017-12-27T11:33:39.497Z,5.54
2017-12-27T11:36:07.117Z,5.66
2017-12-27T11:38:34.733Z,5.70
2017-12-27T11:41:02.360Z,5.77
2017-12-27T11:43:29.960Z,5.79
2017-12-27T11:45:57.550Z,5.88
2017-12-27T11:48:25.195Z,5.90
2017-12-27T11:50:52.784Z,6.05
2017-12-27T11:53:20.415Z,6.13
2017-12-27T11:55:48.019Z,6.27
2017-12-27T11:58:15.643Z,6.30
2017-12-27T12:00:43.567Z,6.35
2017-12-27T12:03:11.200Z,6.39
2017-12-27T12:05:38.831Z,6.38
2017-12-27T12:08:06.416Z,6.47
2017-12-27T12:10:34.062Z,6.48
2017-12-27T12:13:01.696Z,6.51
2017-12-27T12:15:29.326Z,6.55
2017-12-27T12:17:57.011Z,6.55
2017-12-27T12:20:24.737Z,6.55
2017-12-27T12:22:52.371Z,6.40
2017-12-27T12:25:20.429Z,6.44
2017-12-27T12:27:48.016Z,6.40
2017-12-27T12:30:15.658Z,6.38
2017-12-27T12:32:43.232Z,6.30
2017-12-27T12:35:12.514Z,6.30
2017-12-27T12:37:40.512Z,6.34
2017-12-27T12:40:11.134Z,6.29
2017-12-27T12:42:39.111Z,6.28
2017-12-27T12:45:07.034Z,6.27
2017-12-27T12:47:34.629Z,6.24
2017-12-27T12:50:02.237Z,6.29
2017-12-27T12:52:29.929Z,6.31
2017-12-27T12:54:57.596Z,6.27
2017-12-27T12:57:25.183Z,6.26
2017-12-27T12:59:52.782Z,6.23
2017-12-27T13:02:20.480Z,6.27
2017-12-27T13:04:48.074Z,6.32
2017-12-27T13:07:15.699Z,6.32
2017-12-27T13:09:43.292Z,6.28
2017-12-27T13:12:10.894Z,6.27
2017-12-27T13:14:38.501Z,6.23
2017-12-27T13:17:06.079Z,6.21
2017-12-27T13:19:33.708Z,6.21
2017-12-27T13:22:01.280Z,6.17
2017-12-27T13:24:29.126Z,6.19
2017-12-27T13:26:56.796Z,6.19
2017-12-27T13:29:24.416Z,6.20
2017-12-27T13:31:52.102Z,6.16
2017-12-27T13:34:19.731Z,6.12
2017-12-27T13:36:47.335Z,6.12
2017-12-27T13:39:15.215Z,6.17
2017-12-27T13:41:43.105Z,6.10
2017-12-27T13:44:10.710Z,6.06
2017-12-27T13:46:38.372Z,6.09
2017-12-27T13:49:06.077Z,6.10
2017-12-27T13:51:33.671Z,6.12
2017-12-27T13:54:01.324Z,6.04
2017-12-27T13:56:28.930Z,6.03
2017-12-27T13:58:56.594Z,5.99
2017-12-27T14:01:24.237Z,6.01
2017-12-27T14:03:52.154Z,5.96
2017-12-27T14:06:19.782Z,5.85
2017-12-27T14:08:47.431Z,5.83
2017-12-27T14:11:15.005Z,5.85
2017-12-27T14:13:42.625Z,5.87
2017-12-27T14:16:10.210Z,5.86
2017-12-27T14:18:37.836Z,5.89
2017-12-27T14:21:05.408Z,5.93
2017-12-27T14:23:32.972Z,5.86
2017-12-27T14:26:00.892Z,5.81
2017-12-27T14:28:28.471Z,5.74
2017-12-27T14:30:56.109Z,5.71
2017-12-27T14:33:23.688Z,5.73
2017-12-27T14:35:51.287Z,5.79
2017-12-27T14:38:18.930Z,5.76
2017-12-27T14:40:46.790Z,5.79
2017-12-27T14:43:14.403Z,5.76
2017-12-27T14:45:41.980Z,5.75
2017-12-27T14:48:09.880Z,5.77
2017-12-27T14:50:37.487Z,5.75
2017-12-27T14:53:05.305Z,5.74
2017-12-27T14:55:33.278Z,5.70
2017-12-27T14:58:00.869Z,5.65
2017-12-27T15:00:28.487Z,5.63
2017-12-27T15:02:56.367Z,5.58
2017-12-27T15:05:24.073Z,5.39
2017-12-27T15:07:51.695Z,5.37
2017-12-27T15:10:19.313Z,5.36
2017-12-27T15:12:46.885Z,5.29
2017-12-27T15:15:14.496Z,5.39
2017-12-27T15:17:42.072Z,5.39
2017-12-27T15:20:09.688Z,5.42
2017-12-27T15:22:37.355Z,5.39
2017-12-27T15:25:04.956Z,5.38
2017-12-27T15:27:32.664Z,5.42
2017-12-27T15:30:00.326Z,5.51
2017-12-27T15:32:27.959Z,5.47
2017-12-27T15:34:55.535Z,5.50
2017-12-27T15:37:23.130Z,5.50
2017-12-27T15:39:50.747Z,5.57
2017-12-27T15:42:18.363Z,5.58
2017-12-27T15:44:46.233Z,5.63
2017-12-27T15:47:13.810Z,5.54
2017-12-27T15:49:41.473Z,5.54
2017-12-27T15:52:09.098Z,5.47
2017-12-27T15:54:36.675Z,5.44
2017-12-27T15:57:04.297Z,5.48
2017-12-27T15:59:31.887Z,5.43
2017-12-27T16:01:59.485Z,5.39
2017-12-27T16:04:27.647Z,5.35
2017-12-27T16:06:55.511Z,5.42
2017-12-27T16:09:23.132Z,5.36
2017-12-27T16:11:51.041Z,5.35
2017-12-27T16:14:18.620Z,5.37
2017-12-27T16:16:46.245Z,5.36
2017-12-27T16:19:13.828Z,5.40
2017-12-27T16:21:41.443Z,5.38
2017-12-27T16:24:09.026Z,5.31
2017-12-27T16:26:36.599Z,5.37
2017-12-27T16:29:04.196Z,5.36
2017-12-27T16:31:31.800Z,5.35
2017-12-27T16:34:00.423Z,5.36
2017-12-27T16:36:28.000Z,5.37
2017-12-27T16:38:55.592Z,5.40
2017-12-27T16:41:23.209Z,5.35
2017-12-27T16:43:50.796Z,5.35
2017-12-27T16:46:18.428Z,5.36
2017-12-27T16:48:46.049Z,5.36
2017-12-27T16:51:13.664Z,5.30
2017-12-27T16:53:41.247Z,5.33
2017-12-27T16:56:10.018Z,5.33
2017-12-27T16:58:37.592Z,5.27
2017-12-27T17:01:05.176Z,5.23
2017-12-27T17:03:32.796Z,5.20
2017-12-27T17:06:00.372Z,5.20
2017-12-27T17:08:27.995Z,5.23
2017-12-27T17:10:55.571Z,5.20
2017-12-27T17:13:23.164Z,5.21
2017-12-27T17:15:50.790Z,5.20
2017-12-27T17:18:18.374Z,5.13
2017-12-27T17:20:46.268Z,5.17
2017-12-27T17:23:13.855Z,5.13
2017-12-27T17:25:41.549Z,5.03
2017-12-27T17:28:09.519Z,5.00
2017-12-27T17:30:37.183Z,4.94
2017-12-27T17:33:04.812Z,4.98
2017-12-27T17:35:32.716Z,5.00
2017-12-27T17:38:00.577Z,4.99
2017-12-27T17:40:28.215Z,4.95
2017-12-27T17:42:55.813Z,4.98
2017-12-27T17:45:24.288Z,4.96
2017-12-27T17:47:51.907Z,4.96
2017-12-27T17:50:19.532Z,4.94
2017-12-27T17:52:47.151Z,4.95
2017-12-27T17:55:14.787Z,4.99
2017-12-27T17:57:42.718Z,4.96
2017-12-27T18:00:10.298Z,5.00
2017-12-27T18:02:38.127Z,4.98
2017-12-27T18:05:07.264Z,4.92
2017-12-27T18:07:34.838Z,4.90
2017-12-27T18:10:02.980Z,4.88
2017-12-27T18:12:31.179Z,4.88
2017-12-27T18:14:59.581Z,4.86
2017-12-27T18:17:27.272Z,4.89
2017-12-27T18:19:55.111Z,4.88
2017-12-27T18:22:22.739Z,4.85
2017-12-27T18:24:50.381Z,4.87
2017-12-27T18:27:18.246Z,4.88
2017-12-27T18:29:46.215Z,4.92
2017-12-27T18:32:14.184Z,4.89
2017-12-27T18:34:41.823Z,4.94
2017-12-27T18:37:09.429Z,4.95
2017-12-27T18:39:37.538Z,4.92
2017-12-27T18:42:05.294Z,5.02
2017-12-27T18:44:32.892Z,4.92
2017-12-27T18:47:00.500Z,4.88
2017-12-27T18:49:28.146Z,4.79
2017-12-27T18:52:08.361Z,4.80
2017-12-27T18:54:48.970Z,4.80
2017-12-27T18:57:22.371Z,4.80
2017-12-27T19:00:06.828Z,4.74
2017-12-27T19:02:36.850Z,4.77
2017-12-27T19:05:13.633Z,4.75
2017-12-27T19:10:40.745Z,4.64
2017-12-27T19:13:09.103Z,4.63
2017-12-27T19:15:57.515Z,4.67
2017-12-27T19:18:31.396Z,4.68
2017-12-27T19:20:59.798Z,4.64
2017-12-27T19:23:35.263Z,4.67
2017-12-27T19:28:59.137Z,4.60
2017-12-27T19:34:45.055Z,4.44
2017-12-27T19:37:16.319Z,4.43
2017-12-27T19:45:48.253Z,4.36
2017-12-27T19:48:20.366Z,4.33
2017-12-27T19:51:04.004Z,4.34
2017-12-27T19:56:57.137Z,4.33
2017-12-27T19:59:41.712Z,4.35
2017-12-27T20:02:19.277Z,4.25
2017-12-27T20:04:48.762Z,4.29
2017-12-27T20:07:17.546Z,4.23
2017-12-27T20:09:46.067Z,4.22
2017-12-27T20:12:14.915Z,4.20
2017-12-27T20:14:54.880Z,4.15
2017-12-27T20:17:37.751Z,4.14
2017-12-27T20:20:06.472Z,4.08
2017-12-27T20:22:34.113Z,4.11
2017-12-27T20:25:23.296Z,4.06
2017-12-27T20:28:06.474Z,4.01
2017-12-27T20:30:49.355Z,4.00
2017-12-27T20:33:27.251Z,4.01
2017-12-27T20:35:55.496Z,3.89
2017-12-27T20:38:23.081Z,3.90
2017-12-27T20:40:50.692Z,3.96
2017-12-27T20:43:18.364Z,4.02
2017-12-27T20:45:47.938Z,4.05
2017-12-27T20:48:36.440Z,4.11
2017-12-27T20:51:05.939Z,4.13
2017-12-27T20:53:35.038Z,4.19
2017-12-27T20:56:03.112Z,4.05
2017-12-27T20:58:32.192Z,4.06
2017-12-27T21:01:00.621Z,4.03
2017-12-27T21:03:51.206Z,4.10
2017-12-27T21:06:19.914Z,4.02
2017-12-27T21:08:47.929Z,3.98
2017-12-27T21:11:15.967Z,3.92
2017-12-27T21:13:43.836Z,3.92
2017-12-27T21:16:12.827Z,3.97
2017-12-27T21:18:40.724Z,3.85
2017-12-27T21:21:08.672Z,3.84
2017-12-27T21:23:36.260Z,3.66
2017-12-27T21:26:03.880Z,3.60
2017-12-27T21:28:31.759Z,3.68
2017-12-27T21:30:59.354Z,3.63
2017-12-27T21:33:26.931Z,3.56
2017-12-27T21:35:54.564Z,3.55
2017-12-27T21:38:22.139Z,3.58
2017-12-27T21:40:49.719Z,3.61
2017-12-27T21:43:17.350Z,3.62
2017-12-27T21:45:44.941Z,3.64
2017-12-27T21:48:18.115Z,3.59
2017-12-27T21:50:45.686Z,3.68
2017-12-27T21:53:13.763Z,3.62
2017-12-27T21:55:41.364Z,3.61
2017-12-27T21:58:14.471Z,3.55
2017-12-27T22:00:47.623Z,3.49
2017-12-27T22:03:15.528Z,3.51
2017-12-27T22:05:43.099Z,3.49
2017-12-27T22:08:10.669Z,3.52
2017-12-27T22:10:38.272Z,3.49
2017-12-27T22:13:06.178Z,3.55
2017-12-27T22:15:33.812Z,3.58
2017-12-27T22:18:01.404Z,3.63
2017-12-27T22:20:35.009Z,3.60
2017-12-27T22:23:02.873Z,3.55
2017-12-27T22:25:30.472Z,3.53
2017-12-27T22:27:58.102Z,3.57
2017-12-27T22:30:25.958Z,3.46
2017-12-27T22:32:53.567Z,3.50
2017-12-27T22:35:21.201Z,3.55
2017-12-27T22:37:48.779Z,3.49
2017-12-27T22:40:16.716Z,3.53
2017-12-27T22:42:44.404Z,3.53
2017-12-27T22:45:12.028Z,3.48
2017-12-27T22:47:39.619Z,3.40
2017-12-27T22:50:07.220Z,3.46
2017-12-27T22:52:34.834Z,3.57
2017-12-27T22:55:02.424Z,3.61
2017-12-27T22:57:30.361Z,3.68
2017-12-27T22:59:57.976Z,3.78
2017-12-27T23:02:25.588Z,3.81
2017-12-27T23:04:53.454Z,3.82
2017-12-27T23:07:21.062Z,3.78
2017-12-27T23:09:48.673Z,3.78
2017-12-27T23:12:16.308Z,3.74
2017-12-27T23:14:43.888Z,3.73
2017-12-27T23:17:11.767Z,3.76
2017-12-27T23:19:39.350Z,3.70
2017-12-27T23:22:07.296Z,3.69
2017-12-27T23:24:34.886Z,3.70
2017-12-27T23:27:02.472Z,3.69
2017-12-27T23:29:30.100Z,3.56
2017-12-27T23:31:57.684Z,3.62
2017-12-27T23:34:25.298Z,3.49
2017-12-27T23:36:52.878Z,3.55
2017-12-27T23:39:20.457Z,3.59
2017-12-27T23:41:49.048Z,3.62
2017-12-27T23:44:16.642Z,3.66
2017-12-27T23:46:44.287Z,3.62
2017-12-27T23:49:11.887Z,3.66
2017-12-27T23:51:39.517Z,3.58
2017-12-27T23:54:07.422Z,3.61
2017-12-27T23:56:35.020Z,3.66
2017-12-27T23:59:02.624Z,3.73
